Home > Products > Valid Products > MTR

000
SAUS44 KMAF 290855
MTRGDP
METAR KGDP 290851Z AUTO 34008KT 10SM SCT080 19/16 A3024 RMK AO2
RAE23 SLP147 P0000 60002 T01890161 51013





000
SAUS44 KMAF 290855
MTRGDP
METAR KGDP 290851Z AUTO 34008KT 10SM SCT080 19/16 A3024 RMK AO2
RAE23 SLP147 P0000 60002 T01890161 51013





000
SAUS44 KMAF 290854
MTR6R6
METAR K6R6 290853Z AUTO 00000KT 27/16 A2997 RMK AO1 SLP106 T02720161
58001





000
SAUS44 KMAF 290755
MTRGDP
METAR KGDP 290751Z AUTO 04009KT 7SM -RA BKN055 OVC110 20/16 A3024
RMK AO2 SLP145 P0002 T02000156





000
SAUS44 KMAF 290754
MTR6R6
METAR K6R6 290753Z AUTO 19006KT 28/17 A2997 RMK AO1 SLP106 T02780167





000
SAUS44 KMAF 290656
MTRGDP
METAR KGDP 290651Z AUTO 27004KT 10SM -RA BKN065 OVC080 22/14 A3026
RMK AO2 PK WND 03032/0552 SLP149 P0000 T02170144 403440172





000
SAUS44 KMAF 290654
MTR6R6
METAR K6R6 290653Z AUTO 29005KT 28/17 A2998 RMK AO1 SLP109 T02780167





000
SAUS44 KMAF 290557 COR
MTRGDP
METAR KGDP 290551Z AUTO 03026G32KT 10SM -RA FEW075 BKN100 BKN120
20/14 A3020 RMK AO2 PK WND 08040/0452 SLP132 P0000 60010 T02000144
10317 20172 53010





000
SAUS44 KMAF 290557 COR
MTRGDP
METAR KGDP 290551Z AUTO 03026G32KT 10SM -RA FEW075 BKN100 BKN120
20/14 A3020 RMK AO2 PK WND 08040/0452 SLP132 P0000 60010 T02000144
10317 20172 53010





000
SAUS44 KMAF 290556 COR
MTRGDP
METAR KGDP 290551Z AUTO 03026G32KT 10SM -RA FEW075 BKN100 BKN120
20/14 A3020 RMK AO2 PK WND 08040/0452 SLP132 P0000 60010 T02000144
10317 20172 53010





000
SAUS44 KMAF 290556 COR
MTRGDP
METAR KGDP 290551Z AUTO 03026G32KT 10SM -RA FEW075 BKN100 BKN120
20/14 A3020 RMK AO2 PK WND 08040/0452 SLP132 P0000 60010 T02000144
10317 20172 53010





000
SAUS44 KMAF 290555
MTRGDP
METAR KGDP 290551Z AUTO 03026G32KT 10SM -RA FEW075 BKN100 BKN120
20/14 A3020 RMK AO2 PK WND 08040/0452 SLP132 P0000 60010 T02000144
10317 20172 53010





000
SAUS44 KMAF 290555
MTRGDP
METAR KGDP 290551Z AUTO 03026G32KT 10SM -RA FEW075 BKN100 BKN120
20/14 A3020 RMK AO2 PK WND 08040/0452 SLP132 P0000 60010 T02000144
10317 20172 53010





000
SAUS44 KMAF 290554
MTR6R6
METAR K6R6 290553Z AUTO VRB04KT 30/17 A2998 RMK AO1 SLP108 T03000167
10372 20300 403830250 51017





000
SAUS44 KMAF 290554
MTR6R6
METAR K6R6 290553Z AUTO VRB04KT 30/17 A2998 RMK AO1 SLP108 T03000167
10372 20300 403830250 51017





000
SAUS44 KMAF 290455
MTRGDP
METAR KGDP 290451Z AUTO 07034KT 10SM -RA BKN085 18/17 A3019 RMK AO2
PK WND 07038/0451 RAE0358B26 SLP137 P0000 T01780167





000
SAUS44 KMAF 290454
MTR6R6
METAR K6R6 290453Z AUTO 14006KT 31/18 A2997 RMK AO1 SLP106 T03110178





000
SAUS44 KMAF 290357 COR
MTRGDP
METAR KGDP 290351Z AUTO 04029KT 10SM -RA SCT095 BKN120 19/16 A3017
RMK AO2 PK WND 06038/0255 WSHFT 0244 RAB0253 SLP129 P0009 T01940161





000
SAUS44 KMAF 290356 COR
MTRGDP
METAR KGDP 290351Z AUTO 04029KT 10SM -RA SCT095 BKN120 19/16 A3017
RMK AO2 PK WND 06038/0255 WSHFT 0244 RAB0253 SLP129 P0009 T01940161





000
SAUS44 KMAF 290356 COR
MTRGDP
METAR KGDP 290351Z AUTO 04029KT 10SM -RA SCT095 BKN120 19/16 A3017
RMK AO2 PK WND 06038/0255 WSHFT 0244 RAB0253 SLP129 P0009 T01940161





000
SAUS44 KMAF 290355
MTRGDP
METAR KGDP 290351Z AUTO 04029KT 10SM -RA SCT095 BKN120 19/16 A3017
RMK AO2 PK WND 06038/0255 WSHFT 0244 RAB0253 SLP129 P0009 T01940161





000
SAUS44 KMAF 290354
MTR6R6
METAR K6R6 290353Z AUTO 13006KT 32/18 A2995 RMK AO1 SLP101 T03170183





000
SAUS44 KMAF 290310 COR
MTRGDP
SPECI KGDP 290304Z AUTO 04016G38KT 4SM -RA FEW038 OVC090 22/13 A3017
RMK AO2 PK WND 06038/0255 WSHFT 0244 RAB0253 P0009 T02220133





000
SAUS44 KMAF 290309 COR
MTRGDP
SPECI KGDP 290304Z AUTO 04016G38KT 4SM -RA FEW038 OVC090 22/13 A3017
RMK AO2 PK WND 06038/0255 WSHFT 0244 RAB0253 P0009 T02220133





000
SAUS44 KMAF 290308
MTRGDP
SPECI KGDP 290304Z AUTO 04016G38KT 4SM -RA FEW038 OVC090 22/13 A3017
RMK AO2 PK WND 06038/0255 WSHFT 0244 RAB0253 P0009 T02220133





000
SAUS44 KMAF 290257 COR
MTRGDP
METAR KGDP 290251Z AUTO 07021KT 10SM BKN085 OVC110 25/13 A3016 RMK
AO2 RAB15E38 SLP119 P0001 60001 T02500128 53017





000
SAUS44 KMAF 290256 COR
MTRGDP
METAR KGDP 290251Z AUTO 07021KT 10SM BKN085 OVC110 25/13 A3016 RMK
AO2 RAB15E38 SLP119 P0001 60001 T02500128 53017





000
SAUS44 KMAF 290255
MTRGDP
METAR KGDP 290251Z AUTO 07021KT 10SM BKN085 OVC110 25/13 A3016 RMK
AO2 RAB15E38 SLP119 P0001 60001 T02500128 53017





000
SAUS44 KMAF 290254
MTR6R6
METAR K6R6 290253Z AUTO 13006KT 33/18 A2992 RMK AO1 SLP092 T03280183
53021





000
SAUS44 KMAF 290155
MTRGDP
METAR KGDP 290151Z AUTO 24003KT 10SM BKN095 BKN110 29/12 A3012 RMK
AO2 SLP106 T02940122





000
SAUS44 KMAF 290155
MTRGDP
METAR KGDP 290151Z AUTO 24003KT 10SM BKN095 BKN110 29/12 A3012 RMK
AO2 SLP106 T02940122





000
SAUS44 KMAF 290154
MTR6R6
METAR K6R6 290153Z AUTO 14007KT 34/16 A2990 RMK AO1 SLP082 T03440156





000
SAUS44 KMAF 290154
MTR6R6
METAR K6R6 290153Z AUTO 14007KT 34/16 A2990 RMK AO1 SLP082 T03440156





000
SAUS44 KMAF 290055
MTRGDP
METAR KGDP 290051Z AUTO VRB05KT 9SM BKN095 BKN120 29/12 A3011 RMK
AO2 SLP103 T02940122





000
SAUS44 KMAF 290054
MTR6R6
METAR K6R6 290053Z AUTO 12010G17KT 36/17 A2987 RMK AO1 SLP072
T03560172





000
SAUS44 KMAF 282355
MTRGDP
METAR KGDP 282351Z AUTO 11009KT 9SM CLR 32/12 A3010 RMK AO2 SLP096
T03170122 10344 20300 55010





000
SAUS44 KMAF 282355
MTRGDP
METAR KGDP 282351Z AUTO 11009KT 9SM CLR 32/12 A3010 RMK AO2 SLP096
T03170122 10344 20300 55010





000
SAUS44 KMAF 282354
MTR6R6
METAR K6R6 282353Z AUTO 13008KT 37/17 A2986 RMK AO1 SLP068 T03670172
10383 20333 56014





000
SAUS44 KMAF 282255
MTRGDP
METAR KGDP 282251Z AUTO 11018KT 10SM BKN090 BKN110 32/13 A3009 RMK
AO2 SLP092 T03170128





000
SAUS44 KMAF 282254
MTR6R6
METAR K6R6 282253Z AUTO 13010G19KT 38/18 A2987 RMK AO1 SLP069
T03780178





000
SAUS44 KMAF 282155
MTRGDP
METAR KGDP 282151Z AUTO 20010KT 9SM CLR 34/12 A3011 RMK AO2 SLP095
T03440122





000
SAUS44 KMAF 282154
MTR6R6
METAR K6R6 282153Z AUTO 14008G16KT 38/19 A2988 RMK AO1 SLP073
T03780189





000
SAUS44 KMAF 282055
MTRGDP
METAR KGDP 282051Z AUTO VRB06G15KT 9SM CLR 33/12 A3014 RMK AO2
SLP104 T03280122 58011





000
SAUS44 KMAF 282054
MTR6R6
METAR K6R6 282053Z AUTO VRB05G17KT 37/19 A2990 RMK AO1 SLP081
T03720194 58023





000
SAUS44 KMAF 281955
MTRGDP
METAR KGDP 281951Z AUTO 24013G20KT 10SM CLR 33/13 A3015 RMK AO2
SLP109 T03280133





000
SAUS44 KMAF 281955
MTRGDP
METAR KGDP 281951Z AUTO 24013G20KT 10SM CLR 33/13 A3015 RMK AO2
SLP109 T03280133





000
SAUS44 KMAF 281954
MTR6R6
METAR K6R6 281953Z AUTO 19012G19KT 37/20 A2992 RMK AO1 SLP089
T03670200





000
SAUS44 KMAF 281954
MTR6R6
METAR K6R6 281953Z AUTO 19012G19KT 37/20 A2992 RMK AO1 SLP089
T03670200





000
SAUS44 KMAF 281855
MTRGDP
METAR KGDP 281851Z AUTO 24014G19KT 9SM CLR 33/14 A3017 RMK AO2
SLP114 T03280144





000
SAUS44 KMAF 281854
MTR6R6
METAR K6R6 281853Z AUTO 17008G14KT 140V200 36/20 A2995 RMK AO1
SLP098 T03560200





000
SAUS44 KMAF 281755
MTRGDP
METAR KGDP 281751Z AUTO 25016G20KT 9SM CLR 32/14 A3018 RMK AO2
SLP118 T03170139 10317 20206 53003





000
SAUS44 KMAF 281754
MTR6R6
METAR K6R6 281753Z AUTO 16009KT 33/21 A2997 RMK AO1 SLP105 T03280211
10333 20250 58008





000
SAUS44 KMAF 281655
MTRGDP
METAR KGDP 281651Z AUTO 24017KT 10SM CLR 30/13 A3017 RMK AO2 SLP118
T03000133





000
SAUS44 KMAF 281655
MTRGDP
METAR KGDP 281651Z AUTO 24017KT 10SM CLR 30/13 A3017 RMK AO2 SLP118
T03000133





000
SAUS44 KMAF 281654
MTR6R6
METAR K6R6 281653Z AUTO 17011KT 31/22 A2998 RMK AO1 SLP111 T03110217





000
SAUS44 KMAF 281555
MTRGDP
METAR KGDP 281551Z AUTO 24017KT 10SM CLR 28/13 A3017 RMK AO2 SLP118
T02780133





000
SAUS44 KMAF 281555
MTRGDP
METAR KGDP 281551Z AUTO 24017KT 10SM CLR 28/13 A3017 RMK AO2 SLP118
T02780133





000
SAUS44 KMAF 281554
MTR6R6
METAR K6R6 281553Z AUTO VRB03KT 29/22 A2999 RMK AO1 SLP114 T02890217





000
SAUS44 KMAF 281456
MTRGDP
METAR KGDP 281451Z AUTO 24013G18KT 9SM CLR 27/13 A3017 RMK AO2
SLP119 T02670133 51004





000
SAUS44 KMAF 281454
MTR6R6
METAR K6R6 281453Z AUTO 16008KT 27/22 A3000 RMK AO1 SLP117 T02670217
51015





000
SAUS44 KMAF 281454
MTR6R6
METAR K6R6 281453Z AUTO 16008KT 27/22 A3000 RMK AO1 SLP117 T02670217
51015





000
SAUS44 KMAF 281355
MTRGDP
METAR KGDP 281351Z AUTO 23015KT 9SM CLR 22/13 A3016 RMK AO2 SLP124
T02220133





000
SAUS44 KMAF 281355
MTRGDP
METAR KGDP 281351Z AUTO 23015KT 9SM CLR 22/13 A3016 RMK AO2 SLP124
T02220133





000
SAUS44 KMAF 281354
MTR6R6
METAR K6R6 281353Z AUTO 16007KT 26/22 A2999 RMK AO1 SLP114 T02610217





000
SAUS44 KMAF 281354
MTR6R6
METAR K6R6 281353Z AUTO 16007KT 26/22 A2999 RMK AO1 SLP114 T02610217





000
SAUS44 KMAF 281255
MTRGDP
METAR KGDP 281251Z AUTO 24013KT 9SM CLR 21/13 A3016 RMK AO2 SLP124
T02110128





000
SAUS44 KMAF 281255
MTRGDP
METAR KGDP 281251Z AUTO 24013KT 9SM CLR 21/13 A3016 RMK AO2 SLP124
T02110128





000
SAUS44 KMAF 281254
MTR6R6
METAR K6R6 281253Z AUTO VRB05KT 26/22 A2997 RMK AO1 SLP107 T02560222





000
SAUS44 KMAF 281254
MTR6R6
METAR K6R6 281253Z AUTO VRB05KT 26/22 A2997 RMK AO1 SLP107 T02560222





000
SAUS44 KMAF 281155
MTRGDP
METAR KGDP 281151Z AUTO 24014KT 10SM FEW110 21/12 A3015 RMK AO2
SLP114 T02110122 10244 20211 53007





000
SAUS44 KMAF 281155
MTRGDP
METAR KGDP 281151Z AUTO 24014KT 10SM FEW110 21/12 A3015 RMK AO2
SLP114 T02110122 10244 20211 53007





000
SAUS44 KMAF 281154
MTR6R6
METAR K6R6 281153Z AUTO VRB04KT 26/22 A2995 RMK AO1 SLP100 T02560222
10311 20256 53008





000
SAUS44 KMAF 281154
MTR6R6
METAR K6R6 281153Z AUTO VRB04KT 26/22 A2995 RMK AO1 SLP100 T02560222
10311 20256 53008





000
SAUS44 KMAF 281055
MTRGDP
METAR KGDP 281051Z AUTO 25019G23KT 10SM BKN100 22/12 A3014 RMK AO2
SLP107 T02220122





000
SAUS44 KMAF 281055
MTR6R6
METAR K6R6 281053Z AUTO 15006KT 26/22 A2994 RMK AO1 SLP093 T02610222





000
SAUS44 KMAF 281055
MTR6R6
METAR K6R6 281053Z AUTO 15006KT 26/22 A2994 RMK AO1 SLP093 T02610222





000
SAUS44 KMAF 280955
MTRGDP
METAR KGDP 280951Z AUTO 25012KT 10SM CLR 22/13 A3013 RMK AO2 SLP106
T02220133





000
SAUS44 KMAF 280955
MTRGDP
METAR KGDP 280951Z AUTO 25012KT 10SM CLR 22/13 A3013 RMK AO2 SLP106
T02220133





000
SAUS44 KMAF 280954
MTR6R6
METAR K6R6 280953Z AUTO 16007KT 27/22 A2993 RMK AO1 SLP091 T02670217





000
SAUS44 KMAF 280855
MTRGDP
METAR KGDP 280851Z AUTO 25017KT 10SM FEW120 24/13 A3013 RMK AO2
SLP104 T02390128 58005





000
SAUS44 KMAF 280854
MTR6R6
METAR K6R6 280853Z AUTO 14009KT 28/21 A2993 RMK AO1 SLP089 T02780211
56003





000
SAUS44 KMAF 280854
MTR6R6
METAR K6R6 280853Z AUTO 14009KT 28/21 A2993 RMK AO1 SLP089 T02780211
56003





000
SAUS44 KMAF 280755
MTRGDP
METAR KGDP 280751Z AUTO 24008KT 10SM CLR 24/13 A3013 RMK AO2 SLP112
T02390128





000
SAUS44 KMAF 280755
MTRGDP
METAR KGDP 280751Z AUTO 24008KT 10SM CLR 24/13 A3013 RMK AO2 SLP112
T02390128





000
SAUS44 KMAF 280754
MTR6R6
METAR K6R6 280753Z AUTO 13009G14KT 29/18 A2993 RMK AO1 SLP089
T02890183





000
SAUS44 KMAF 280754
MTR6R6
METAR K6R6 280753Z AUTO 13009G14KT 29/18 A2993 RMK AO1 SLP089
T02890183





000
SAUS44 KMAF 280655
MTRGDP
METAR KGDP 280651Z AUTO 23011KT 10SM CLR 24/13 A3014 RMK AO2 SLP106
T02390128 403330228





000
SAUS44 KMAF 280655
MTRGDP
METAR KGDP 280651Z AUTO 23011KT 10SM CLR 24/13 A3014 RMK AO2 SLP106
T02390128 403330228





000
SAUS44 KMAF 280654
MTR6R6
METAR K6R6 280653Z AUTO 13007KT 30/16 A2993 RMK AO1 SLP090 T03000161





000
SAUS44 KMAF 280654
MTR6R6
METAR K6R6 280653Z AUTO 13007KT 30/16 A2993 RMK AO1 SLP090 T03000161





000
SAUS44 KMAF 280555
MTRGDP
METAR KGDP 280551Z AUTO 23005KT 10SM FEW110 24/13 A3015 RMK AO2
SLP110 T02440133 10328 20244 51007





000
SAUS44 KMAF 280554
MTR6R6
METAR K6R6 280553Z AUTO 15009KT 31/17 A2994 RMK AO1 SLP093 T03110167
10378 20311 404000250 51014





000
SAUS44 KMAF 280554
MTR6R6
METAR K6R6 280553Z AUTO 15009KT 31/17 A2994 RMK AO1 SLP093 T03110167
10378 20311 404000250 51014





000
SAUS44 KMAF 280455
MTRGDP
METAR KGDP 280451Z AUTO VRB04KT 10SM CLR 26/13 A3015 RMK AO2 SLP110
T02560133





000
SAUS44 KMAF 280455
MTRGDP
METAR KGDP 280451Z AUTO VRB04KT 10SM CLR 26/13 A3015 RMK AO2 SLP110
T02560133





000
SAUS44 KMAF 280454
MTR6R6
METAR K6R6 280453Z AUTO 14005KT 32/17 A2994 RMK AO1 SLP092 T03170167





000
SAUS44 KMAF 280454
MTR6R6
METAR K6R6 280453Z AUTO 14005KT 32/17 A2994 RMK AO1 SLP092 T03170167





000
SAUS44 KMAF 280355
MTRGDP
METAR KGDP 280351Z AUTO 06005KT 10SM CLR 26/12 A3014 RMK AO2 SLP111
T02610122





000
SAUS44 KMAF 280355
MTRGDP
METAR KGDP 280351Z AUTO 06005KT 10SM CLR 26/12 A3014 RMK AO2 SLP111
T02610122





000
SAUS44 KMAF 280354
MTR6R6
METAR K6R6 280353Z AUTO 12007KT 33/17 A2992 RMK AO1 SLP089 T03280167





000
SAUS44 KMAF 280255
MTRGDP
METAR KGDP 280251Z AUTO 00000KT 10SM CLR 27/11 A3012 RMK AO2 SLP108
T02670111 53013





000
SAUS44 KMAF 280254
MTR6R6
METAR K6R6 280253Z AUTO 11006KT 33/16 A2989 RMK AO1 SLP079 T03330161
53023





000
SAUS44 KMAF 280254
MTR6R6
METAR K6R6 280253Z AUTO 11006KT 33/16 A2989 RMK AO1 SLP079 T03330161
53023





000
SAUS44 KMAF 280155
MTRGDP
METAR KGDP 280151Z AUTO 00000KT 9SM CLR 28/12 A3010 RMK AO2 SLP096
T02780117





000
SAUS44 KMAF 280154
MTR6R6
METAR K6R6 280153Z AUTO 13005KT 34/15 A2987 RMK AO1 SLP071 T03440150





000
SAUS44 KMAF 280055
MTRGDP
METAR KGDP 280051Z AUTO 25016G23KT 10SM CLR 28/12 A3008 RMK AO2
SLP092 T02830122





000
SAUS44 KMAF 280055
MTRGDP
METAR KGDP 280051Z AUTO 25016G23KT 10SM CLR 28/12 A3008 RMK AO2
SLP092 T02830122





000
SAUS44 KMAF 280054
MTR6R6
METAR K6R6 280053Z AUTO 12010G16KT 36/16 A2984 RMK AO1 SLP063
T03610156





000
SAUS44 KMAF 272359 COR
MTR6R6
METAR K6R6 272353Z AUTO 13011G19KT 38/14 A2982 RMK AO1 SLP055
T03780144 10400 20356 56011





000
SAUS44 KMAF 272355
MTRGDP
METAR KGDP 272351Z AUTO 20007KT 10SM CLR 32/13 A3008 RMK AO2 SLP086
T03220128 10333 20272 56010





000
SAUS44 KMAF 272354
MTR6R6
METAR K6R6 272353Z AUTO 13011G19KT 38/14 A2982 RMK AO1 SLP055
T03780144 10400 20356 56011





000
SAUS44 KMAF 272255
MTRGDP
METAR KGDP 272251Z AUTO 23013G20KT 10SM CLR 32/12 A3009 RMK AO2
SLP086 T03220117





000
SAUS44 KMAF 272254
MTR6R6
METAR K6R6 272253Z AUTO 13009G16KT 39/15 A2982 RMK AO1 SLP054
T03890150





000
SAUS44 KMAF 272155
MTRGDP
METAR KGDP 272151Z AUTO 24009KT 9SM CLR 31/12 A3009 RMK AO2 SLP091
T03110117





000
SAUS44 KMAF 272154
MTR6R6
METAR K6R6 272153Z AUTO 16013G20KT 39/16 A2984 RMK AO1 SLP057
T03940156





000
SAUS44 KMAF 272055
MTR6R6
METAR K6R6 272053Z AUTO 13010G18KT 39/17 A2986 RMK AO1 SLP064
T03940167 56024





000
SAUS44 KMAF 272055
MTRGDP
METAR KGDP 272051Z AUTO 23010KT 10SM CLR 30/12 A3011 RMK AO2 PK WND
24028/1957 SLP098 T03000122 58016





000
SAUS44 KMAF 271955
MTRGDP
METAR KGDP 271951Z AUTO 20011G39KT 9SM CLR 27/12 A3014 RMK AO2 PK
WND 23039/1942 SLP110 T02720117





000
SAUS44 KMAF 271954
MTR6R6
METAR K6R6 271953Z AUTO 13007G15KT 030V180 39/17 A2988 RMK AO1
SLP071 T03890172





000
SAUS44 KMAF 271954
MTR6R6
METAR K6R6 271953Z AUTO 13007G15KT 030V180 39/17 A2988 RMK AO1
SLP071 T03890172





000
SAUS44 KMAF 271855
MTRGDP
METAR KGDP 271851Z AUTO 23013KT 9SM CLR 32/13 A3014 RMK AO2 SLP103
T03220133





000
SAUS44 KMAF 271854
MTR6R6
METAR K6R6 271853Z AUTO 18010G19KT 37/19 A2991 RMK AO1 SLP082
T03670189





000
SAUS44 KMAF 271755
MTR6R6
METAR K6R6 271753Z AUTO 15007KT 090V180 36/20 A2993 RMK AO1 SLP090
T03560200 10361 20250 58008





000
SAUS44 KMAF 271755
MTRGDP
METAR KGDP 271751Z AUTO 25009G21KT 9SM CLR 31/14 A3017 RMK AO2
SLP113 T03110139 10317 20228 50000





000
SAUS44 KMAF 271755
MTR6R6
METAR K6R6 271753Z AUTO 15007KT 090V180 36/20 A2993 RMK AO1 SLP090
T03560200 10361 20250 58008





000
SAUS44 KMAF 271755
MTRGDP
METAR KGDP 271751Z AUTO 25009G21KT 9SM CLR 31/14 A3017 RMK AO2
SLP113 T03110139 10317 20228 50000





000
SAUS44 KMAF 271655
MTRGDP
METAR KGDP 271651Z AUTO 24012KT 9SM CLR 30/15 A3017 RMK AO2 SLP117
T03000150





000
SAUS44 KMAF 271654
MTR6R6
METAR K6R6 271653Z AUTO 15008KT 110V180 34/21 A2994 RMK AO1 SLP094
T03440206





000
SAUS44 KMAF 271654
MTR6R6
METAR K6R6 271653Z AUTO 15008KT 110V180 34/21 A2994 RMK AO1 SLP094
T03440206





000
SAUS44 KMAF 271555
MTRGDP
METAR KGDP 271551Z AUTO 25007KT 9SM CLR 27/16 A3017 RMK AO2 SLP124
T02720156





000
SAUS44 KMAF 271554
MTR6R6
METAR K6R6 271553Z AUTO 18009KT 32/22 A2995 RMK AO1 SLP098 T03170217





000
SAUS44 KMAF 271455
MTRGDP
METAR KGDP 271451Z AUTO 26006KT 8SM CLR 24/15 A3017 RMK AO2 SLP119
T02440150 53010





000
SAUS44 KMAF 271455
MTRGDP
METAR KGDP 271451Z AUTO 26006KT 8SM CLR 24/15 A3017 RMK AO2 SLP119
T02440150 53010





000
SAUS44 KMAF 271454
MTR6R6
METAR K6R6 271453Z AUTO 18011KT 29/22 A2996 RMK AO1 SLP101 T02940217
51015





000
SAUS44 KMAF 271454
MTR6R6
METAR K6R6 271453Z AUTO 18011KT 29/22 A2996 RMK AO1 SLP101 T02940217
51015





000
SAUS44 KMAF 271355
MTRGDP
METAR KGDP 271351Z AUTO 25009KT 8SM CLR 25/15 A3015 RMK AO2 SLP112
T02500150





000
SAUS44 KMAF 271354
MTR6R6
METAR K6R6 271353Z AUTO VRB06KT 28/22 A2995 RMK AO1 SLP100 T02780217





000
SAUS44 KMAF 271255
MTRGDP
METAR KGDP 271251Z AUTO 25005KT 8SM CLR 23/14 A3014 RMK AO2 SLP108
T02330139





000
SAUS44 KMAF 271255
MTRGDP
METAR KGDP 271251Z AUTO 25005KT 8SM CLR 23/14 A3014 RMK AO2 SLP108
T02330139





000
SAUS44 KMAF 271254
MTR6R6
METAR K6R6 271253Z AUTO 29003KT 27/22 A2993 RMK AO1 SLP092 T02670217





000
SAUS44 KMAF 271254
MTR6R6
METAR K6R6 271253Z AUTO 29003KT 27/22 A2993 RMK AO1 SLP092 T02670217





000
SAUS44 KMAF 271155
MTRGDP
METAR KGDP 271151Z AUTO 23007KT 10SM FEW100 23/14 A3013 RMK AO2
SLP104 70001 T02330139 10267 20228 53004





000
SAUS44 KMAF 271154
MTR6R6
METAR K6R6 271153Z AUTO 28004KT 25/19 A2991 RMK AO1 SLP085 T02500194
10317 20250 52005





000
SAUS44 KMAF 271055
MTRGDP
METAR KGDP 271051Z AUTO 23007KT 10SM FEW100 24/14 A3012 RMK AO2
SLP101 T02390139





000
SAUS44 KMAF 271054
MTR6R6
METAR K6R6 271053Z AUTO 26006KT 27/20 A2991 RMK AO1 SLP082 T02670200





000
SAUS44 KMAF 270955
MTRGDP
METAR KGDP 270951Z AUTO 21009KT 10SM CLR 24/14 A3011 RMK AO2 SLP093
T02390139





000
SAUS44 KMAF 270955
MTRGDP
METAR KGDP 270951Z AUTO 21009KT 10SM CLR 24/14 A3011 RMK AO2 SLP093
T02390139





000
SAUS44 KMAF 270954
MTR6R6
METAR K6R6 270953Z AUTO VRB03KT 28/19 A2990 RMK AO1 SLP080 T02780194





000
SAUS44 KMAF 270855
MTRGDP
METAR KGDP 270851Z AUTO 20008KT 10SM CLR 24/14 A3012 RMK AO2 SLP097
T02440139 56005





000
SAUS44 KMAF 270854
MTR6R6
METAR K6R6 270853Z AUTO VRB06KT 28/19 A2990 RMK AO1 SLP078 T02830189
58006





000
SAUS44 KMAF 270755
MTRGDP
METAR KGDP 270751Z AUTO 20009KT 10SM CLR 26/11 A3012 RMK AO2 SLP098
T02560111





000
SAUS44 KMAF 270755
MTRGDP
METAR KGDP 270751Z AUTO 20009KT 10SM CLR 26/11 A3012 RMK AO2 SLP098
T02560111





000
SAUS44 KMAF 270754
MTR6R6
METAR K6R6 270753Z AUTO VRB04KT 29/18 A2991 RMK AO1 SLP083 T02940183





000
SAUS44 KMAF 270754
MTR6R6
METAR K6R6 270753Z AUTO VRB04KT 29/18 A2991 RMK AO1 SLP083 T02940183





000
SAUS44 KMAF 270655
MTRGDP
METAR KGDP 270651Z AUTO 22007KT 10SM CLR 26/11 A3013 RMK AO2 SLP099
T02610111 403330194





000
SAUS44 KMAF 270655
MTRGDP
METAR KGDP 270651Z AUTO 22007KT 10SM CLR 26/11 A3013 RMK AO2 SLP099
T02610111 403330194





000
SAUS44 KMAF 270654
MTR6R6
METAR K6R6 270653Z AUTO 14008G15KT 31/18 A2992 RMK AO1 SLP085
T03110178





000
SAUS44 KMAF 270654
MTR6R6
METAR K6R6 270653Z AUTO 14008G15KT 31/18 A2992 RMK AO1 SLP085
T03110178





000
SAUS44 KMAF 270555
MTRGDP
METAR KGDP 270551Z AUTO VRB03KT 10SM CLR 27/11 A3014 RMK AO2 SLP102
60001 T02670111 10322 20217 50007





000
SAUS44 KMAF 270554
MTR6R6
METAR K6R6 270553Z AUTO 14009G15KT 32/18 A2992 RMK AO1 SLP085
T03170178 10389 20317 404060233 50010





000
SAUS44 KMAF 270554
MTR6R6
METAR K6R6 270553Z AUTO 14009G15KT 32/18 A2992 RMK AO1 SLP085
T03170178 10389 20317 404060233 50010





000
SAUS44 KMAF 270455
MTRGDP
METAR KGDP 270451Z AUTO VRB06KT 10SM FEW075 BKN100 BKN120 25/12
A3014 RMK AO2 RAE51 SLP112 P0001 T02500122





000
SAUS44 KMAF 270455
MTRGDP
METAR KGDP 270451Z AUTO VRB06KT 10SM FEW075 BKN100 BKN120 25/12
A3014 RMK AO2 RAE51 SLP112 P0001 T02500122





000
SAUS44 KMAF 270454
MTR6R6
METAR K6R6 270453Z AUTO 15010KT 32/18 A2992 RMK AO1 SLP086 T03220183





000
SAUS44 KMAF 270355
MTRGDP
METAR KGDP 270351Z AUTO 17017G26KT 10SM -RA OVC080 24/13 A3016 RMK
AO2 PK WND 17034/0325 RAB38 PRESRR SLP124 P0000 T02390133





000
SAUS44 KMAF 270355
MTRGDP
METAR KGDP 270351Z AUTO 17017G26KT 10SM -RA OVC080 24/13 A3016 RMK
AO2 PK WND 17034/0325 RAB38 PRESRR SLP124 P0000 T02390133





000
SAUS44 KMAF 270354
MTR6R6
METAR K6R6 270353Z AUTO 16008KT 33/18 A2990 RMK AO1 SLP082 T03280178





000
SAUS44 KMAF 270255
MTRGDP
METAR KGDP 270251Z AUTO 21003KT 10SM BKN090 28/10 A3011 RMK AO2
SLP106 T02830100 53005





000
SAUS44 KMAF 270254
MTR6R6
METAR K6R6 270253Z AUTO 14007KT 34/18 A2988 RMK AO1 SLP075 T03390178
51015





000
SAUS44 KMAF 270155
MTRGDP
METAR KGDP 270151Z AUTO 23006KT 10SM CLR 29/11 A3010 RMK AO2 SLP103
T02890106





000
SAUS44 KMAF 270154
MTR6R6
METAR K6R6 270153Z AUTO 13007G14KT 35/18 A2987 RMK AO1 SLP072
T03500183





000
SAUS44 KMAF 270055
MTRGDP
METAR KGDP 270051Z AUTO 19009KT 10SM CLR 31/10 A3009 RMK AO2 SLP096
T03110100





000
SAUS44 KMAF 270054
MTR6R6
METAR K6R6 270053Z AUTO 12009KT 37/18 A2985 RMK AO1 SLP066 T03670178





000
SAUS44 KMAF 262355
MTRGDP
METAR KGDP 262351Z AUTO 19010KT 170V230 10SM CLR 32/09 A3009 RMK AO2
SLP096 T03220089 10333 20300 56013





000
SAUS44 KMAF 262355
MTRGDP
METAR KGDP 262351Z AUTO 19010KT 170V230 10SM CLR 32/09 A3009 RMK AO2
SLP096 T03220089 10333 20300 56013





000
SAUS44 KMAF 262354
MTR6R6
METAR K6R6 262353Z AUTO 15010G21KT 39/18 A2984 RMK AO1 SLP060
T03890178 10406 20350 56014





000
SAUS44 KMAF 262354
MTR6R6
METAR K6R6 262353Z AUTO 15010G21KT 39/18 A2984 RMK AO1 SLP060
T03890178 10406 20350 56014





000
SAUS44 KMAF 262255
MTRGDP
METAR KGDP 262251Z AUTO 10004G16KT 10SM CLR 31/11 A3010 RMK AO2
SLP096 T03110106





000
SAUS44 KMAF 262254
MTR6R6
METAR K6R6 262253Z AUTO 18009G18KT 39/18 A2985 RMK AO1 SLP063
T03940178





000
SAUS44 KMAF 262155
MTRGDP
METAR KGDP 262151Z AUTO 20007KT 10SM CLR 33/13 A3012 RMK AO2 SLP101
T03330128





000
SAUS44 KMAF 262154
MTR6R6
METAR K6R6 262153Z AUTO VRB04KT 39/17 A2986 RMK AO1 SLP068 T03940172





000
SAUS44 KMAF 262055
MTRGDP
METAR KGDP 262051Z AUTO 19008KT 10SM CLR 32/12 A3014 RMK AO2 SLP107
T03220122 56010





000
SAUS44 KMAF 262054
MTR6R6
METAR K6R6 262053Z AUTO VRB06KT 39/17 A2988 RMK AO1 SLP073 T03940167
58019





000
SAUS44 KMAF 261955
MTRGDP
METAR KGDP 261951Z AUTO 24012G19KT 200V300 10SM CLR 32/12 A3015 RMK
AO2 SLP104 T03220122





000
SAUS44 KMAF 261954
MTR6R6
METAR K6R6 261953Z AUTO 22007G14KT 200V260 38/17 A2990 RMK AO1
SLP081 T03780167





000
SAUS44 KMAF 261855
MTRGDP
METAR KGDP 261851Z AUTO 24009KT 10SM CLR 32/14 A3017 RMK AO2 SLP112
T03170139





000
SAUS44 KMAF 261854
MTR6R6
METAR K6R6 261853Z AUTO 21012KT 37/17 A2992 RMK AO1 SLP088 T03720172





000
SAUS44 KMAF 261854
MTR6R6
METAR K6R6 261853Z AUTO 21012KT 37/17 A2992 RMK AO1 SLP088 T03720172





000
SAUS44 KMAF 261755
MTRGDP
METAR KGDP 261751Z AUTO 24014KT 10SM CLR 31/14 A3018 RMK AO2 SLP120
T03060139 10306 20194 50002





000
SAUS44 KMAF 261755
MTRGDP
METAR KGDP 261751Z AUTO 24014KT 10SM CLR 31/14 A3018 RMK AO2 SLP120
T03060139 10306 20194 50002





000
SAUS44 KMAF 261754
MTR6R6
METAR K6R6 261753Z AUTO VRB06G19KT 35/18 A2994 RMK AO1 SLP095
T03500178 10356 20233 58007





000
SAUS44 KMAF 261754
MTR6R6
METAR K6R6 261753Z AUTO VRB06G19KT 35/18 A2994 RMK AO1 SLP095
T03500178 10356 20233 58007





000
SAUS44 KMAF 261655
MTRGDP
METAR KGDP 261651Z AUTO 25012G20KT 10SM CLR 27/15 A3018 RMK AO2
SLP125 T02720150





000
SAUS44 KMAF 261654
MTR6R6
METAR K6R6 261653Z AUTO 24005KT 33/19 A2995 RMK AO1 SLP101 T03330194





000
SAUS44 KMAF 261654
MTR6R6
METAR K6R6 261653Z AUTO 24005KT 33/19 A2995 RMK AO1 SLP101 T03330194





000
SAUS44 KMAF 261555
MTRGDP
METAR KGDP 261551Z AUTO 23011KT 10SM CLR 24/15 A3017 RMK AO2 SLP125
T02440150





000
SAUS44 KMAF 261555
MTR6R6
METAR K6R6 261553Z AUTO 19007KT 170V250 31/21 A2996 RMK AO1 SLP102
T03110211





000
SAUS44 KMAF 261555
MTRGDP
METAR KGDP 261551Z AUTO 23011KT 10SM CLR 24/15 A3017 RMK AO2 SLP125
T02440150





000
SAUS44 KMAF 261555
MTR6R6
METAR K6R6 261553Z AUTO 19007KT 170V250 31/21 A2996 RMK AO1 SLP102
T03110211





000
SAUS44 KMAF 261456
MTRGDP
METAR KGDP 261451Z AUTO 23012KT 10SM CLR 22/14 A3017 RMK AO2 SLP129
T02170144 53011





000
SAUS44 KMAF 261454
MTR6R6
METAR K6R6 261453Z AUTO 17008KT 29/21 A2996 RMK AO1 SLP105 T02940211
51013





000
SAUS44 KMAF 261355
MTRGDP
METAR KGDP 261351Z AUTO 25012KT 10SM CLR 21/14 A3016 RMK AO2 SLP122
T02110139





000
SAUS44 KMAF 261354
MTR6R6
METAR K6R6 261353Z AUTO 17007KT 150V230 28/21 A2996 RMK AO1 SLP103
T02780211





000
SAUS44 KMAF 261354
MTR6R6
METAR K6R6 261353Z AUTO 17007KT 150V230 28/21 A2996 RMK AO1 SLP103
T02780211





000
SAUS44 KMAF 261255
MTRGDP
METAR KGDP 261251Z AUTO 23015KT 10SM CLR 20/13 A3015 RMK AO2 SLP119
T02000128





000
SAUS44 KMAF 261254
MTR6R6
METAR K6R6 261253Z AUTO 31004KT 26/19 A2994 RMK AO1 SLP098 T02560189





000
SAUS44 KMAF 261155
MTRGDP
METAR KGDP 261151Z AUTO 24010G18KT 10SM CLR 19/12 A3013 RMK AO2
SLP112 T01940122 10272 20194 53004





000
SAUS44 KMAF 261154
MTR6R6
METAR K6R6 261153Z AUTO VRB03KT 23/18 A2992 RMK AO1 SLP090 T02330178
10283 20233 53007





000
SAUS44 KMAF 261055
MTRGDP
METAR KGDP 261051Z AUTO 27013KT 10SM CLR 22/11 A3013 RMK AO2 SLP103
T02220111





000
SAUS44 KMAF 261054
MTR6R6
METAR K6R6 261053Z AUTO 30005KT 25/18 A2991 RMK AO1 SLP086 T02500178





000
SAUS44 KMAF 260955
MTRGDP
METAR KGDP 260951Z AUTO 24009KT 10SM CLR 21/11 A3012 RMK AO2 SLP103
T02060111





000
SAUS44 KMAF 260955
MTRGDP
METAR KGDP 260951Z AUTO 24009KT 10SM CLR 21/11 A3012 RMK AO2 SLP103
T02060111





000
SAUS44 KMAF 260954
MTR6R6
METAR K6R6 260953Z AUTO 26005KT 25/17 A2991 RMK AO1 SLP083 T02500167





000
SAUS44 KMAF 260954
MTR6R6
METAR K6R6 260953Z AUTO 26005KT 25/17 A2991 RMK AO1 SLP083 T02500167





    US Dept of Commerce
    National Oceanic and Atmospheric Administration
    National Weather Service
    1325 East West Highway
    Silver Spring, MD 20910
    Page Author: NWS Internet Services Team
Disclaimer
Information Quality
Credits
Glossary
Privacy Policy
Freedom of Information Act (FOIA)
About Us
Career Opportunities